RJFFRJOM

Guest
Details From RJFF - FUKUOKA
To RJOM - MATSUYAMA
Flight Number -
Tags generated
Created
Modified
Stats Distance 113 nm / 210 km
Max Altitude 7,600 ft / 2,316 m
Waypoints 3
Social Downloads 0
Likes 0
Share VATSIM

Download

Looking for another format? Having issues loading an existing format? Contact us
Advertisement - Login to hide

Notes

Basic altitude profile: - Ascent Rate: 2500ft/min - Ascent Speed: 250kts - Cruise Altitude: 35000ft - Cruise Speed: 420kts - Descent Rate: 1500ft/min - Descent Speed: 250kts Options: - Use NATs: yes - Use PACOTS: yes - Use low airways: yes - Use high airways: yes

Route

RJFF YANAI RJOM

ID Type Via Altitude Latitude Longitude Leg Dist Tot Dist Heading (true) Name
O RJFF APT - 0 ft / 0 m 33.58594˚ 130.45069˚ - 0 nm - FUKUOKA
YANAI FIX - 7,600 ft / 2,316 m 33.77303˚ 131.98809˚ 77 nm 77 nm 81° / 82° -
O RJOM APT - 0 ft / 0 m 33.82726˚ 132.69963˚ 35 nm 113 nm 85° / 85° MATSUYAMA

Altitude Profile

Advertisement - Login to hide

RJFF

Details ICAO RJFF (FUK)
Name FUKUOKA
Region Japan
Timezone Asia/Tokyo (UTC+9.0)
Stats Elevation 32 ft / 10 m (AMSL)
Location 33.585943° 130.450686°
Runways 1
Magnetic Variation 7.448° W

METAR

RJFF 140400Z 07008KT 040V110 9999 FEW030 BKN040 BKN050 08/M01 Q1026

Decode

TAF

TAF RJFF 132309Z 1400/1506 15006KT 9999 -SHRA FEW020 BKN040 BECMG 1400/1402 05008KT BECMG 1410/1412 14005KT BECMG 1503/1506 33004KT

Decode

Departure Runways

ID Width Length Bearing (true) Bearing (mag) Surface Threshold Offset Overrun Length
16 197 ft / 60 m 9,217 ft / 2,810 m 150.35° 157.80° Asphalt 0 ft / 0 m 719 ft / 219 m
34 197 ft / 60 m 9,217 ft / 2,810 m 330.35° 337.80° Asphalt 0 ft / 0 m 801 ft / 244 m

RJOM

Details ICAO RJOM (MYJ)
Name MATSUYAMA
Region Japan
Timezone Asia/Tokyo (UTC+9.0)
Stats Elevation 25 ft / 8 m (AMSL)
Location 33.827257° 132.699631°
Runways 1
Magnetic Variation 7.513° W

METAR

RJOM 140400Z 02012KT 350V050 9999 FEW025 09/M04 Q1026

Decode

TAF

TAF RJOM 132305Z 1400/1506 12005KT 9999 FEW025 SCT045 BECMG 1400/1402 01010KT BECMG 1409/1411 12005KT BECMG 1500/1503 32005KT

Decode

Destination Runways

ID Width Length Bearing (true) Bearing (mag) Surface Threshold Offset Overrun Length
14 150 ft / 46 m 8,203 ft / 2,500 m 130.67° 138.18° Asphalt 0 ft / 0 m 206 ft / 63 m
32 150 ft / 46 m 8,203 ft / 2,500 m 310.68° 318.19° Asphalt 0 ft / 0 m 195 ft / 59 m